This is the latest recevied weather packets stored in our database for station/object OK1PMP-6. If no packets are shown the sender has not sent any weather packets the latest 1 day(s).
| Time | Temp. | Humidity | Pressure | Rain* | Wind** | Luminosity | Snow |
|---|---|---|---|---|---|---|---|
| 1778017660 | 15° C | 85% | 1009 hPa | 0 mm | 0.89 m/s, 282° | 0 W/m² | - |
| 1778016756 | 14.44° C | 87% | 1008.7 hPa | 0 mm | 0.89 m/s, 271° | 0 W/m² | - |
| 1778015856 | 14.44° C | 86% | 1008 hPa | 0 mm | 0.89 m/s, 225° | 0 W/m² | - |
| 1778014955 | 14.44° C | 85% | 1007.4 hPa | 0 mm | 0 m/s | 0 W/m² | - |
| 1778014053 | 15° C | 86% | 1007.4 hPa | 0 mm | 0.45 m/s, 150° | 0 W/m² | - |
| 1778013148 | 15° C | 85% | 1007.3 hPa | 0 mm | 0.45 m/s, 92° | 0 W/m² | - |
| 1778012244 | 14.44° C | 85% | 1007.2 hPa | 0 mm | 0.89 m/s, 92° | 0 W/m² | - |
| 1778011344 | 14.44° C | 86% | 1007.1 hPa | 0 mm | 1.34 m/s, 65° | 0 W/m² | - |
| 1778010439 | 14.44° C | 87% | 1007 hPa | 0 mm | 1.79 m/s, 343° | 0 W/m² | - |
| 1778009531 | 13.89° C | 89% | 1007.1 hPa | 0.25 mm | 0.89 m/s, 357° | 0 W/m² | - |
| 1778008719 | 13.89° C | 90% | 1006.8 hPa | 0.51 mm | 0.45 m/s, 52° | 0 W/m² | - |
| 1778007831 | 13.89° C | 89% | 1007 hPa | 1.02 mm | 0.45 m/s, 44° | 0 W/m² | - |
| 1778006819 | 14.44° C | 88% | 1007 hPa | 1.27 mm | 0.45 m/s, 41° | 0 W/m² | - |
| 1778005915 | 14.44° C | 90% | 1007.7 hPa | 1.52 mm | 0 m/s | 0 W/m² | - |
| 1778005014 | 14.44° C | 85% | 1008.3 hPa | 1.52 mm | 0 m/s | 0 W/m² | - |
| 1778004112 | 15° C | 79% | 1008.8 hPa | 1.27 mm | 0 m/s | 2 W/m² | - |
| 1778003216 | 15.56° C | 78% | 1008.9 hPa | 1.02 mm | 3.13 m/s, 253° | 3 W/m² | - |
| 1778002314 | 16.67° C | 77% | 1008.6 hPa | 0.51 mm | 1.79 m/s, 203° | 3 W/m² | - |
| 1778001405 | 17.78° C | 70% | 1008.1 hPa | 0 mm | 2.68 m/s, 213° | 3 W/m² | - |
| 1778000501 | 18.89° C | 63% | 1008 hPa | 0 mm | 0.89 m/s, 170° | 7 W/m² | - |
| 1777999614 | 21.67° C | 47% | 1008.3 hPa | 0 mm | 1.79 m/s, 160° | 15 W/m² | - |
| 1777998683 | 22.78° C | 44% | 1007.6 hPa | 0 mm | 0 m/s | 22 W/m² | - |
| 1777997783 | 22.78° C | 40% | 1007.7 hPa | 0 mm | 0 m/s | 43 W/m² | - |
| 1777996881 | 23.33° C | 39% | 1007.5 hPa | 0 mm | 0 m/s | 69 W/m² | - |
| 1777995981 | 24.44° C | 38% | 1007.7 hPa | 0 mm | 0 m/s | 75 W/m² | - |
* Rain latest hour (hover to see other rain measurements)
** Current wind speed in m/s (hover to see current wind gust speed)